• Join FlightAware (Why Join?)
  • Login
  • US Flag 
Gobble Gobble! 
09:55AM EST


 

Airport Tracker/Info


-or-


 

Live Flight TrackerFlight Track Log ✈ BOE2 ✈ 23-Apr-2014 ✈ KMWH - KBFI

Flight Track Log - Related Links

Times and Time Zones

All times are in EDT time to prevent confusion due to time zone crossing. See the BOE2 flight status page for this flight to view local times or setup timezone preferences in your user account.

Time Position Orientation Groundspeed Altitude Reporting Facility
EDT Latitude Longitude Course Direction KTS MPH feet Rate Location/Type
09:01PM 47.4012 -119.7730 296° West 296 341 20,000  Level FlightAware ADS-B
09:02PM 47.3789 -119.8047 299° West  Level FlightAware Approximate
09:02PM 47.4363 -119.8810 296° West 394 453 20,000  Level FlightAware ADS-B
09:03PM 47.4643 -119.9670 295° West 410 472 20,000  Level FlightAware ADS-B
09:04PM 47.5535 -120.2420 295° West 414 476 20,000  Level FlightAware ADS-B
09:05PM 47.5799 -120.3230 296° West 412 474 20,000  Level FlightAware ADS-B
09:06PM 47.6087 -120.4140 295° West 412 474 20,000  Level FlightAware ADS-B
09:06PM 47.6331 -120.4910 295° West 412 474 20,000  Level FlightAware ADS-B
09:07PM 47.6668 -120.5960 296° West 413 475 20,000  Level FlightAware ADS-B
09:07PM 47.6916 -120.6740 295° West 414 476 20,000  Level FlightAware ADS-B
09:08PM 47.7189 -120.7600 295° West 412 474 20,000  Level FlightAware ADS-B
09:08PM 47.7438 -120.8390 295° West 414 476 20,000  Level FlightAware ADS-B
09:09PM 47.7686 -120.9180 295° West 413 475 20,000  Level FlightAware ADS-B
09:09PM 47.7784 -120.9497 295° West 413 475 20,000  Level FlightAware ADS-B (CYWH)
09:09PM 47.7930 -120.9970 295° West 413 475 20,000  Level FlightAware ADS-B
09:10PM 47.8023 -121.0264 295° West 413 475 20,000 -420 Level FlightAware ADS-B (CYWH)
09:10PM 47.8174 -121.0740 295° West 404 465 19,800 -1,320 Descending FlightAware ADS-B
09:10PM 47.8096 -121.0495 295° West 411 473 19,300 -2,580 Descending FlightAware ADS-B (CYVR)
09:10PM 47.8388 -121.1430 294° West 387 445 18,600 -3,000 Descending FlightAware ADS-B
09:11PM 47.8467 -121.1730 289° West 382 440 18,100 -2,880 Descending FlightAware ADS-B
09:11PM 47.8521 -121.2000 285° West 380 437 17,500 -3,720 Descending FlightAware ADS-B
09:11PM 47.8445 -121.1639 284° West 380 437 17,300 -3,780 Descending FlightAware ADS-B (CYWH)
09:11PM 47.8575 -121.2420 278° West 378 435 16,500 -3,420 Descending FlightAware ADS-B
09:11PM 47.8629 -121.3190 276° West 374 430 14,800 -3,240 Descending FlightAware ADS-B
09:12PM 47.8647 -121.3475 275° West 372 428 14,300 -3,000 Descending FlightAware ADS-B (CYWH)
09:12PM 47.8674 -121.3950 275° West 366 421 13,300 -2,700 Descending FlightAware ADS-B
09:12PM 47.8717 -121.4700 275° West 353 406 12,100 -2,160 Descending FlightAware ADS-B
09:13PM 47.8574 -121.2403 275° West 348 400 12,000 -780 Descending FlightAware ADS-B (CYVR)
09:13PM 47.8761 -121.5410 276° West 321 369 11,700 -780 Descending FlightAware ADS-B
09:13PM 47.8647 -121.3475 276° West 308 354 11,600 -480 Descending FlightAware ADS-B (KPAE)
09:13PM 47.8797 -121.5950 276° West 295 339 11,500 -420 Descending FlightAware ADS-B
09:14PM 47.8829 -121.6441 275° West 272 313 11,300 -420 Descending FlightAware ADS-B (CYVR)
09:14PM 47.8835 -121.6550 275° West 271 312 11,300 -480 Level FlightAware ADS-B
09:14PM 47.8843 -121.6710 272° West 264 304 11,200 -780 Descending FlightAware ADS-B
09:14PM 47.8835 -121.6840 262° West 259 298 11,100 -540 Descending FlightAware ADS-B
09:14PM 47.8823 -121.6920 256° West 256 295 11,100 -1,020 Level FlightAware ADS-B
09:14PM 47.8840 -121.6796 254° West 256 295 11,000 -1,500 Descending FlightAware ADS-B (KPAE)
09:14PM 47.8791 -121.7050 246° West 254 292 10,900 -1,020 Descending FlightAware ADS-B
09:15PM 47.8764 -121.7130 241° Southwest 254 292 10,800 -1,020 Descending FlightAware ADS-B
09:15PM 47.8716 -121.7230 232° Southwest 253 291 10,700 -1,500 Descending FlightAware ADS-B
09:15PM 47.8607 -121.7380 221° Southwest 257 296 10,300 -1,920 Descending FlightAware ADS-B
09:15PM 47.8686 -121.7278 222° Southwest 258 297 10,200 -1,920 Descending FlightAware ADS-B (CYVR)
09:15PM 47.8463 -121.7580 223° Southwest 264 304 9,800 -2,040 Descending FlightAware ADS-B
09:15PM 47.8371 -121.7709 222° Southwest 268 308 9,400 -1,920 Descending FlightAware ADS-B (KPAE)
09:15PM 47.8316 -121.7780 222° Southwest 268 308 9,300 -1,200 Descending FlightAware ADS-B
09:16PM 47.8181 -121.7964 223° Southwest 268 308 9,000 -1,200 Descending FlightAware ADS-B (KPAE)
09:16PM 47.8032 -121.8170 222° Southwest 266 306 8,700 -1,080 Descending FlightAware ADS-B
09:16PM 47.8017 -121.8187 222° Southwest 266 306 8,700 -1,380 Level FlightAware ADS-B (CYVR)
09:16PM 47.7865 -121.8390 222° Southwest 263 303 8,300 -1,320 Descending FlightAware ADS-B
09:16PM 47.7874 -121.8380 222° Southwest 262 302 8,300 -2,340 Level FlightAware ADS-B (CYVR)
09:16PM 47.7711 -121.8600 222° Southwest 261 300 7,600 -2,940 Descending FlightAware ADS-B
09:17PM 47.7568 -121.8800 222° Southwest 256 295 6,800 -2,460 Descending FlightAware ADS-B
09:17PM 47.7437 -121.8970 222° Southwest 245 282 6,300 -1,800 Descending FlightAware ADS-B
09:17PM 47.7313 -121.9140 222° Southwest 240 276 5,900 -1,560 Descending FlightAware ADS-B
09:18PM 47.7190 -121.9300 222° Southwest 223 257 5,500 -1,560 Descending FlightAware ADS-B
09:18PM 47.7104 -121.9420 222° Southwest 217 250 5,200 -1,620 Descending FlightAware ADS-B
09:18PM 47.7074 -121.9460 225° Southwest 214 246 5,100 -1,380 Descending FlightAware ADS-B
09:18PM 47.7046 -121.9510 230° Southwest 213 245 5,000 -780 Descending FlightAware ADS-B
09:18PM 47.7030 -121.9550 237° Southwest 213 245 5,000 -1,500 Level FlightAware ADS-B
09:18PM 47.7001 -121.9680 259° West 216 249 4,700 -1,620 Descending FlightAware ADS-B
09:18PM 47.6998 -121.9770 268° West 218 251 4,600 -1,140 Descending FlightAware ADS-B
09:18PM 47.6998 -121.9840 271° West 219 252 4,500 -1,500 Descending FlightAware ADS-B
09:18PM 47.7003 -122.0010 273° West 216 249 4,200 -1,620 Descending FlightAware ADS-B
09:19PM 47.7006 -122.0099 273° West 206 237 3,900 -1,500 Descending FlightAware ADS-B (KPAE)
09:19PM 47.7011 -122.0240 273° West 203 234 3,800 -1,500 Descending FlightAware ADS-B
09:19PM 47.7023 -122.0390 278° West 202 232 3,500 -1,740 Descending FlightAware ADS-B
09:19PM 47.7024 -122.0402 280° West 202 232 3,400 -1,740 Descending FlightAware ADS-B (KPAE)
09:19PM 47.7038 -122.0500 282° West 203 234 3,300 -900 Descending FlightAware ADS-B
09:19PM 47.7072 -122.0720 283° West 206 237 3,100 -720 Descending FlightAware ADS-B
09:19PM 47.7069 -122.0706 283° West 205 236 3,100  Level FlightAware ADS-B (KPAE)
09:20PM 47.7108 -122.0980 282° West 200 230 3,100  Level FlightAware ADS-B
09:20PM 47.7110 -122.0988 282° West 201 231 3,100  Level FlightAware ADS-B (KPAE)
09:20PM 47.7141 -122.1210 282° West 202 232 3,100  Level FlightAware ADS-B
09:20PM 47.7149 -122.1263 282° West 201 231 3,100  Level FlightAware ADS-B (KPAE)
09:20PM 47.7174 -122.1430 282° West 201 231 3,100  Level FlightAware ADS-B
09:20PM 47.7189 -122.1541 282° West 201 231 3,100  Level FlightAware ADS-B (KPAE)
09:20PM 47.7203 -122.1640 282° West 201 231 3,100  Level FlightAware ADS-B
09:21PM 47.7234 -122.1850 282° West 202 232 3,100  Level FlightAware ADS-B
09:21PM 47.7263 -122.2060 282° West 203 234 3,100  Level FlightAware ADS-B
09:21PM 47.7267 -122.2090 282° West 203 234 3,100 -600 Level FlightAware ADS-B (KPAE)
09:21PM 47.7283 -122.2210 281° West 202 232 3,000 -900 Descending FlightAware ADS-B
09:21PM 47.7306 -122.2380 281° West 203 234 2,800 -1,140 Descending FlightAware ADS-B (KPAE)
09:22PM 47.7334 -122.2585 281° West 204 235 2,400 -780 Descending FlightAware ADS-B (KPAE)
09:22PM 47.7374 -122.2898 281° West 203 234 2,300 -180 Descending FlightAware ADS-B (KPAE)
09:22PM 47.7393 -122.3054 281° West 203 234 2,300  Level FlightAware ADS-B (KPAE)
09:23PM 47.7441 -122.3440 281° West 203 234 2,300  Level FlightAware ADS-B
09:26PM 47.6599 -122.4130 150° Southeast 158 182 2,300  Level FlightAware ADS-B
09:26PM 47.6485 -122.4030 150° Southeast 137 158 2,300  Level FlightAware ADS-B
09:26PM 47.6396 -122.3950 150° Southeast 136 157 2,300 -240 Level FlightAware ADS-B
09:27PM 47.6306 -122.3880 150° Southeast 136 157 2,200 -600 Descending FlightAware ADS-B
09:27PM 47.6078 -122.3680 150° Southeast 128 147 1,700 -720 Descending FlightAware ADS-B
09:28PM 47.5850 -122.3503 150° Southeast 124 143 1,100 -720 Descending Seattle Center
09:29PM 47.5717 -122.3400 153° Southeast 121 139 800 -720 Descending Seattle Center
09:29PM 47.5550 -122.3247 148° Southeast 122 140 400 -780 Descending Seattle Center